sensor_id;sensor_type;location;lat;lon;timestamp;pressure;altitude;pressure_sealevel;temperature;humidity
69221;BME280;56331;51.992;20.910;2023-04-01T00:01:12;98226.77;;;22.84;39.47
69221;BME280;56331;51.992;20.910;2023-04-01T00:03:40;98236.08;;;22.82;39.47
69221;BME280;56331;51.992;20.910;2023-04-01T00:06:07;98246.58;;;22.82;39.48
69221;BME280;56331;51.992;20.910;2023-04-01T00:08:35;98243.02;;;22.82;39.48
69221;BME280;56331;51.992;20.910;2023-04-01T00:11:02;98249.96;;;22.82;39.51
69221;BME280;56331;51.992;20.910;2023-04-01T00:13:28;98247.19;;;22.82;39.46
69221;BME280;56331;51.992;20.910;2023-04-01T00:15:55;98246.40;;;22.81;39.49
69221;BME280;56331;51.992;20.910;2023-04-01T00:18:23;98243.62;;;22.81;39.49
69221;BME280;56331;51.992;20.910;2023-04-01T00:20:51;98240.84;;;22.81;39.49
69221;BME280;56331;51.992;20.910;2023-04-01T00:23:18;98238.45;;;22.80;39.53
69221;BME280;56331;51.992;20.910;2023-04-01T00:25:46;98238.45;;;22.80;39.51
69221;BME280;56331;51.992;20.910;2023-04-01T00:28:15;98234.30;;;22.80;39.60
69221;BME280;56331;51.992;20.910;2023-04-01T00:30:42;98238.45;;;22.80;39.53
69221;BME280;56331;51.992;20.910;2023-04-01T00:33:09;98235.08;;;22.80;39.51
69221;BME280;56331;51.992;20.910;2023-04-01T00:35:36;98237.07;;;22.80;39.51
69221;BME280;56331;51.992;20.910;2023-04-01T00:38:04;98230.13;;;22.80;39.48
69221;BME280;56331;51.992;20.910;2023-04-01T00:40:37;98225.18;;;22.79;39.47
69221;BME280;56331;51.992;20.910;2023-04-01T00:43:13;98232.30;;;22.80;39.51
69221;BME280;56331;51.992;20.910;2023-04-01T00:45:42;98225.78;;;22.79;39.49
69221;BME280;56331;51.992;20.910;2023-04-01T00:48:17;98225.78;;;22.79;39.47
69221;BME280;56331;51.992;20.910;2023-04-01T00:50:57;98218.63;;;22.78;39.49
69221;BME280;56331;51.992;20.910;2023-04-01T00:53:24;98218.84;;;22.79;39.48
69221;BME280;56331;51.992;20.910;2023-04-01T00:56:04;98217.23;;;22.78;39.46
69221;BME280;56331;51.992;20.910;2023-04-01T00:58:24;98224.39;;;22.79;39.47
69221;BME280;56331;51.992;20.910;2023-04-01T01:00:52;98218.02;;;22.78;39.46
69221;BME280;56331;51.992;20.910;2023-04-01T01:03:20;98220.02;;;22.78;39.40
69221;BME280;56331;51.992;20.910;2023-04-01T01:11:35;98209.89;;;22.76;39.37
69221;BME280;56331;51.992;20.910;2023-04-01T01:16:47;98217.05;;;22.77;39.36
69221;BME280;56331;51.992;20.910;2023-04-01T01:21:58;98221.60;;;22.75;39.37
69221;BME280;56331;51.992;20.910;2023-04-01T01:24:51;98215.45;;;22.76;39.36
69221;BME280;56331;51.992;20.910;2023-04-01T01:27:17;98219.42;;;22.75;39.36
69221;BME280;56331;51.992;20.910;2023-04-01T01:32:42;98227.75;;;22.75;39.31
69221;BME280;56331;51.992;20.910;2023-04-01T01:35:26;98225.58;;;22.74;39.29
69221;BME280;56331;51.992;20.910;2023-04-01T01:37:58;98226.97;;;22.74;39.26
69221;BME280;56331;51.992;20.910;2023-04-01T01:40:27;98227.16;;;22.75;39.28
69221;BME280;56331;51.992;20.910;2023-04-01T01:42:57;98222.98;;;22.75;39.30
69221;BME280;56331;51.992;20.910;2023-04-01T01:45:26;98224.19;;;22.74;39.26
69221;BME280;56331;51.992;20.910;2023-04-01T01:47:55;98224.80;;;22.74;39.26
69221;BME280;56331;51.992;20.910;2023-04-01T01:50:24;98216.25;;;22.72;39.23
69221;BME280;56331;51.992;20.910;2023-04-01T01:53:07;98212.09;;;22.72;39.26
69221;BME280;56331;51.992;20.910;2023-04-01T01:55:37;98216.06;;;22.71;39.24
69221;BME280;56331;51.992;20.910;2023-04-01T01:58:13;98205.94;;;22.73;39.22
69221;BME280;56331;51.992;20.910;2023-04-01T02:00:44;98205.36;;;22.74;39.19
69221;BME280;56331;51.992;20.910;2023-04-01T02:03:10;98201.59;;;22.72;39.18
69221;BME280;56331;51.992;20.910;2023-04-01T02:05:39;98202.37;;;22.72;39.05
69221;BME280;56331;51.992;20.910;2023-04-01T02:08:20;98196.64;;;22.71;38.61
69221;BME280;56331;51.992;20.910;2023-04-01T02:10:53;98197.23;;;22.71;38.59
69221;BME280;56331;51.992;20.910;2023-04-01T02:13:26;98195.63;;;22.70;38.62
69221;BME280;56331;51.992;20.910;2023-04-01T02:15:50;98195.63;;;22.70;38.53
69221;BME280;56331;51.992;20.910;2023-04-01T02:18:21;98198.41;;;22.70;38.39
69221;BME280;56331;51.992;20.910;2023-04-01T02:20:49;98197.23;;;22.71;38.34
69221;BME280;56331;51.992;20.910;2023-04-01T02:23:15;98203.36;;;22.70;38.27
69221;BME280;56331;51.992;20.910;2023-04-01T02:25:43;98199.02;;;22.69;38.19
69221;BME280;56331;51.992;20.910;2023-04-01T02:28:12;98194.84;;;22.69;38.20
69221;BME280;56331;51.992;20.910;2023-04-01T02:30:43;98188.51;;;22.69;38.09
69221;BME280;56331;51.992;20.910;2023-04-01T02:33:11;98187.72;;;22.68;38.14
69221;BME280;56331;51.992;20.910;2023-04-01T02:35:37;98185.13;;;22.69;37.93
69221;BME280;56331;51.992;20.910;2023-04-01T02:38:05;98180.78;;;22.68;37.88
69221;BME280;56331;51.992;20.910;2023-04-01T02:40:47;98181.57;;;22.69;37.87
69221;BME280;56331;51.992;20.910;2023-04-01T02:43:14;98180.57;;;22.67;37.81
69221;BME280;56331;51.992;20.910;2023-04-01T02:45:40;98187.51;;;22.67;37.82
69221;BME280;56331;51.992;20.910;2023-04-01T02:48:07;98187.51;;;22.67;37.73
69221;BME280;56331;51.992;20.910;2023-04-01T02:50:33;98185.94;;;22.66;37.71
69221;BME280;56331;51.992;20.910;2023-04-01T02:53:01;98190.09;;;22.66;37.58
69221;BME280;56331;51.992;20.910;2023-04-01T02:55:29;98188.71;;;22.66;37.58
69221;BME280;56331;51.992;20.910;2023-04-01T02:57:56;98189.31;;;22.66;37.56
69221;BME280;56331;51.992;20.910;2023-04-01T03:00:24;98195.23;;;22.68;37.55
69221;BME280;56331;51.992;20.910;2023-04-01T03:02:50;98199.21;;;22.67;37.43
69221;BME280;56331;51.992;20.910;2023-04-01T03:05:16;98197.83;;;22.67;37.67
69221;BME280;56331;51.992;20.910;2023-04-01T03:07:43;98201.80;;;22.66;37.70
69221;BME280;56331;51.992;20.910;2023-04-01T03:10:11;98203.77;;;22.65;37.71
69221;BME280;56331;51.992;20.910;2023-04-01T03:12:37;98209.91;;;22.65;37.75
69221;BME280;56331;51.992;20.910;2023-04-01T03:15:05;98212.09;;;22.65;37.82
69221;BME280;56331;51.992;20.910;2023-04-01T03:17:31;98210.52;;;22.64;37.84
69221;BME280;56331;51.992;20.910;2023-04-01T03:19:58;98220.83;;;22.64;37.99
69221;BME280;56331;51.992;20.910;2023-04-01T03:22:25;98220.04;;;22.63;38.12
69221;BME280;56331;51.992;20.910;2023-04-01T03:24:52;98227.16;;;22.64;38.18
69221;BME280;56331;51.992;20.910;2023-04-01T03:27:18;98223.98;;;22.62;38.15
69221;BME280;56331;51.992;20.910;2023-04-01T03:29:45;98231.33;;;22.64;38.33
69221;BME280;56331;51.992;20.910;2023-04-01T03:32:16;98233.31;;;22.64;38.32
69221;BME280;56331;51.992;20.910;2023-04-01T03:34:42;98228.36;;;22.63;38.50
69221;BME280;56331;51.992;20.910;2023-04-01T03:37:09;98234.70;;;22.64;38.60
69221;BME280;56331;51.992;20.910;2023-04-01T03:39:35;98229.16;;;22.64;38.67
69221;BME280;56331;51.992;20.910;2023-04-01T03:42:02;98229.16;;;22.64;38.55
69221;BME280;56331;51.992;20.910;2023-04-01T03:44:35;98231.14;;;22.63;38.49
69221;BME280;56331;51.992;20.910;2023-04-01T03:47:01;98235.88;;;22.63;38.49
69221;BME280;56331;51.992;20.910;2023-04-01T03:49:28;98231.71;;;22.63;38.63
69221;BME280;56331;51.992;20.910;2023-04-01T03:51:55;98235.09;;;22.62;38.77
69221;BME280;56331;51.992;20.910;2023-04-01T03:54:21;98235.09;;;22.62;38.94
69221;BME280;56331;51.992;20.910;2023-04-01T03:56:48;98232.91;;;22.62;39.23
69221;BME280;56331;51.992;20.910;2023-04-01T03:59:14;98241.42;;;22.63;39.47
69221;BME280;56331;51.992;20.910;2023-04-01T04:01:41;98247.79;;;22.63;39.49
69221;BME280;56331;51.992;20.910;2023-04-01T04:04:12;98247.79;;;22.63;39.53
69221;BME280;56331;51.992;20.910;2023-04-01T04:06:39;98249.18;;;22.63;39.11
69221;BME280;56331;51.992;20.910;2023-04-01T04:09:06;98249.18;;;22.63;39.10
69221;BME280;56331;51.992;20.910;2023-04-01T04:11:33;98251.35;;;22.64;38.95
69221;BME280;56331;51.992;20.910;2023-04-01T04:13:59;98247.58;;;22.62;39.01
69221;BME280;56331;51.992;20.910;2023-04-01T04:16:26;98249.38;;;22.61;39.01
69221;BME280;56331;51.992;20.910;2023-04-01T04:18:53;98251.34;;;22.57;39.11
69221;BME280;56331;51.992;20.910;2023-04-01T04:21:19;98252.55;;;22.56;39.12
69221;BME280;56331;51.992;20.910;2023-04-01T04:23:46;98257.11;;;22.58;38.98
69221;BME280;56331;51.992;20.910;2023-04-01T04:26:15;98258.09;;;22.59;38.64
69221;BME280;56331;51.992;20.910;2023-04-01T04:28:43;98258.88;;;22.60;38.46
69221;BME280;56331;51.992;20.910;2023-04-01T04:31:10;98268.80;;;22.61;38.23
69221;BME280;56331;51.992;20.910;2023-04-01T04:33:36;98263.85;;;22.60;38.34
69221;BME280;56331;51.992;20.910;2023-04-01T04:36:04;98256.91;;;22.60;38.20
69221;BME280;56331;51.992;20.910;2023-04-01T04:38:32;98267.41;;;22.61;38.07
69221;BME280;56331;51.992;20.910;2023-04-01T04:40:58;98263.03;;;22.60;38.18
69221;BME280;56331;51.992;20.910;2023-04-01T04:43:25;98262.84;;;22.59;38.16
69221;BME280;56331;51.992;20.910;2023-04-01T04:45:52;98257.48;;;22.60;38.12
69221;BME280;56331;51.992;20.910;2023-04-01T04:48:18;98265.81;;;22.60;38.08
69221;BME280;56331;51.992;20.910;2023-04-01T04:50:48;98268.59;;;22.60;38.08
69221;BME280;56331;51.992;20.910;2023-04-01T04:53:16;98269.97;;;22.60;38.06
69221;BME280;56331;51.992;20.910;2023-04-01T04:55:49;98272.17;;;22.60;38.00
69221;BME280;56331;51.992;20.910;2023-04-01T04:58:17;98276.13;;;22.59;38.01
69221;BME280;56331;51.992;20.910;2023-04-01T05:00:43;98274.73;;;22.59;38.03
69221;BME280;56331;51.992;20.910;2023-04-01T05:03:10;98281.29;;;22.61;37.96
69221;BME280;56331;51.992;20.910;2023-04-01T05:05:38;98281.89;;;22.60;37.99
69221;BME280;56331;51.992;20.910;2023-04-01T05:08:05;98274.73;;;22.59;38.03
69221;BME280;56331;51.992;20.910;2023-04-01T05:10:32;98283.06;;;22.59;38.01
69221;BME280;56331;51.992;20.910;2023-04-01T05:12:58;98281.08;;;22.60;38.06
69221;BME280;56331;51.992;20.910;2023-04-01T05:15:25;98275.34;;;22.59;38.10
69221;BME280;56331;51.992;20.910;2023-04-01T05:17:51;98278.13;;;22.55;38.20
69221;BME280;56331;51.992;20.910;2023-04-01T05:20:18;98281.09;;;22.53;38.29
69221;BME280;56331;51.992;20.910;2023-04-01T05:22:45;98275.52;;;22.49;38.35
69221;BME280;56331;51.992;20.910;2023-04-01T05:25:11;98280.66;;;22.47;38.42
69221;BME280;56331;51.992;20.910;2023-04-01T05:27:38;98280.66;;;22.47;38.43
69221;BME280;56331;51.992;20.910;2023-04-01T05:30:05;98277.89;;;22.47;38.45
69221;BME280;56331;51.992;20.910;2023-04-01T05:32:32;98283.44;;;22.47;38.45
69221;BME280;56331;51.992;20.910;2023-04-01T05:34:58;98274.33;;;22.46;38.49
69221;BME280;56331;51.992;20.910;2023-04-01T05:37:25;98273.92;;;22.44;38.58
69221;BME280;56331;51.992;20.910;2023-04-01T05:39:51;98275.31;;;22.44;38.63
69221;BME280;56331;51.992;20.910;2023-04-01T05:42:18;98276.13;;;22.45;38.70
69221;BME280;56331;51.992;20.910;2023-04-01T05:44:44;98280.07;;;22.44;38.81
69221;BME280;56331;51.992;20.910;2023-04-01T05:47:14;98282.47;;;22.45;38.99
69221;BME280;56331;51.992;20.910;2023-04-01T05:49:40;98276.13;;;22.45;39.12
69221;BME280;56331;51.992;20.910;2023-04-01T05:52:08;98284.45;;;22.45;39.20
69221;BME280;56331;51.992;20.910;2023-04-01T05:54:34;98287.80;;;22.44;39.32
69221;BME280;56331;51.992;20.910;2023-04-01T05:57:01;98280.07;;;22.44;39.39
69221;BME280;56331;51.992;20.910;2023-04-01T05:59:27;98284.45;;;22.45;39.50
69221;BME280;56331;51.992;20.910;2023-04-01T06:01:56;98279.09;;;22.46;39.68
69221;BME280;56331;51.992;20.910;2023-04-01T06:04:25;98285.23;;;22.49;39.76
69221;BME280;56331;51.992;20.910;2023-04-01T06:06:53;98287.03;;;22.47;39.82
69221;BME280;56331;51.992;20.910;2023-04-01T06:09:30;98286.21;;;22.47;39.81
69221;BME280;56331;51.992;20.910;2023-04-01T06:18:07;98285.23;;;22.45;40.06
69221;BME280;56331;51.992;20.910;2023-04-01T06:26:32;98296.52;;;22.46;40.39
69221;BME280;56331;51.992;20.910;2023-04-01T06:31:58;98300.09;;;22.43;40.43
69221;BME280;56331;51.992;20.910;2023-04-01T06:34:31;98300.69;;;22.43;40.43
69221;BME280;56331;51.992;20.910;2023-04-01T06:40:17;98300.28;;;22.44;40.32
69221;BME280;56331;51.992;20.910;2023-04-01T06:46:09;98300.47;;;22.42;40.41
69221;BME280;56331;51.992;20.910;2023-04-01T06:48:02;98300.09;;;22.43;40.40
69221;BME280;56331;51.992;20.910;2023-04-01T06:50:40;98296.72;;;22.44;40.45
69221;BME280;56331;51.992;20.910;2023-04-01T06:53:19;98298.70;;;22.43;40.37
69221;BME280;56331;51.992;20.910;2023-04-01T06:55:47;98302.27;;;22.44;40.26
69221;BME280;56331;51.992;20.910;2023-04-01T06:58:24;98299.70;;;22.45;40.16
69221;BME280;56331;51.992;20.910;2023-04-01T07:00:54;98290.38;;;22.43;40.13
69221;BME280;56331;51.992;20.910;2023-04-01T07:03:34;98299.91;;;22.42;40.11
69221;BME280;56331;51.992;20.910;2023-04-01T07:06:04;98303.84;;;22.41;40.13
69221;BME280;56331;51.992;20.910;2023-04-01T07:08:34;98296.31;;;22.42;40.05
69221;BME280;56331;51.992;20.910;2023-04-01T07:11:08;98302.08;;;22.43;40.02
69221;BME280;56331;51.992;20.910;2023-04-01T07:13:51;98306.23;;;22.43;40.04
69221;BME280;56331;51.992;20.910;2023-04-01T07:21:47;98302.48;;;22.45;39.89
69221;BME280;56331;51.992;20.910;2023-04-01T07:24:31;98306.83;;;22.46;39.88
69221;BME280;56331;51.992;20.910;2023-04-01T07:26:57;98299.30;;;22.46;39.89
69221;BME280;56331;51.992;20.910;2023-04-01T07:29:26;98298.52;;;22.46;39.90
69221;BME280;56331;51.992;20.910;2023-04-01T07:32:15;98296.74;;;22.47;39.85
69221;BME280;56331;51.992;20.910;2023-04-01T07:38:22;98298.53;;;22.53;40.13
69221;BME280;56331;51.992;20.910;2023-04-01T07:40:36;98295.34;;;22.55;40.13
69221;BME280;56331;51.992;20.910;2023-04-01T07:49:04;98302.29;;;22.47;40.70
69221;BME280;56331;51.992;20.910;2023-04-01T07:54:37;98307.84;;;22.47;41.00
69221;BME280;56331;51.992;20.910;2023-04-01T08:13:37;98321.89;;;22.52;41.51
69221;BME280;56331;51.992;20.910;2023-04-01T08:16:25;98322.50;;;22.52;41.47
69221;BME280;56331;51.992;20.910;2023-04-01T08:21:51;98324.27;;;22.46;41.93
69221;BME280;56331;51.992;20.910;2023-04-01T08:24:44;98319.73;;;22.48;42.66
69221;BME280;56331;51.992;20.910;2023-04-01T08:30:23;98332.20;;;22.52;42.70
69221;BME280;56331;51.992;20.910;2023-04-01T08:36:11;98331.41;;;22.55;42.02
69221;BME280;56331;51.992;20.910;2023-04-01T08:39:03;98335.98;;;22.57;41.49
69221;BME280;56331;51.992;20.910;2023-04-01T08:52:37;98334.98;;;22.48;40.73
69221;BME280;56331;51.992;20.910;2023-04-01T08:58:31;98337.76;;;22.48;40.51
69221;BME280;56331;51.992;20.910;2023-04-01T09:00:57;98333.38;;;22.47;40.37
69221;BME280;56331;51.992;20.910;2023-04-01T09:20:47;98340.72;;;22.49;40.09
69221;BME280;56331;51.992;20.910;2023-04-01T09:28:20;98335.18;;;22.45;40.48
69221;BME280;56331;51.992;20.910;2023-04-01T09:31:12;98336.95;;;22.44;40.56
69221;BME280;56331;51.992;20.910;2023-04-01T09:36:43;98334.39;;;22.45;41.05
69221;BME280;56331;51.992;20.910;2023-04-01T09:39:26;98332.21;;;22.48;41.49
69221;BME280;56331;51.992;20.910;2023-04-01T09:48:15;98341.32;;;22.52;41.79
69221;BME280;56331;51.992;20.910;2023-04-01T09:53:26;98348.06;;;22.55;41.93
69221;BME280;56331;51.992;20.910;2023-04-01T10:18:58;98368.88;;;22.55;41.90
69221;BME280;56331;51.992;20.910;2023-04-01T10:21:46;98367.11;;;22.56;41.87
69221;BME280;56331;51.992;20.910;2023-04-01T10:38:39;98363.33;;;22.55;41.79
69221;BME280;56331;51.992;20.910;2023-04-01T10:52:54;98363.33;;;22.55;41.99
69221;BME280;56331;51.992;20.910;2023-04-01T10:55:53;98364.14;;;22.55;41.92
69221;BME280;56331;51.992;20.910;2023-04-01T11:09:53;98365.72;;;22.56;41.32
69221;BME280;56331;51.992;20.910;2023-04-01T11:20:44;98381.17;;;22.54;41.08
69221;BME280;56331;51.992;20.910;2023-04-01T11:31:54;98378.40;;;22.54;40.93
69221;BME280;56331;51.992;20.910;2023-04-01T11:48:20;98382.94;;;22.52;40.60
69221;BME280;56331;51.992;20.910;2023-04-01T11:58:40;98385.72;;;22.52;40.42
69221;BME280;56331;51.992;20.910;2023-04-01T12:26:40;98398.42;;;22.53;41.16
69221;BME280;56331;51.992;20.910;2023-04-01T12:34:42;98402.58;;;22.53;41.33
69221;BME280;56331;51.992;20.910;2023-04-01T12:42:44;98397.63;;;22.53;41.47
69221;BME280;56331;51.992;20.910;2023-04-01T12:45:27;98396.25;;;22.53;41.70
69221;BME280;56331;51.992;20.910;2023-04-01T12:56:03;98393.47;;;22.53;41.90
69221;BME280;56331;51.992;20.910;2023-04-01T12:58:43;98394.45;;;22.54;42.02
69221;BME280;56331;51.992;20.910;2023-04-01T13:15:05;98407.34;;;22.53;42.77
69221;BME280;56331;51.992;20.910;2023-04-01T13:23:24;98418.82;;;22.51;43.12
69221;BME280;56331;51.992;20.910;2023-04-01T13:28:37;98417.44;;;22.51;43.11
69221;BME280;56331;51.992;20.910;2023-04-01T13:31:07;98422.58;;;22.49;43.24
69221;BME280;56331;51.992;20.910;2023-04-01T13:33:41;98422.98;;;22.51;43.48
69221;BME280;56331;51.992;20.910;2023-04-01T14:38:42;98453.13;;;22.53;42.56
69221;BME280;56331;51.992;20.910;2023-04-01T14:41:38;98455.91;;;22.53;42.69
69221;BME280;56331;51.992;20.910;2023-04-01T14:49:41;98473.34;;;22.53;42.82
69221;BME280;56331;51.992;20.910;2023-04-01T14:54:46;98484.22;;;22.48;42.98
69221;BME280;56331;51.992;20.910;2023-04-01T14:57:24;98479.86;;;22.47;42.99
69221;BME280;56331;51.992;20.910;2023-04-01T15:00:13;98490.74;;;22.46;43.06
69221;BME280;56331;51.992;20.910;2023-04-01T15:02:56;98487.59;;;22.48;43.09
69221;BME280;56331;51.992;20.910;2023-04-01T15:14:14;98503.64;;;22.48;43.11
69221;BME280;56331;51.992;20.910;2023-04-01T15:22:51;98507.61;;;22.47;43.12
69221;BME280;56331;51.992;20.910;2023-04-01T15:25:38;98514.92;;;22.46;43.14
69221;BME280;56331;51.992;20.910;2023-04-01T15:28:10;98518.48;;;22.46;43.24
69221;BME280;56331;51.992;20.910;2023-04-01T15:36:18;98531.77;;;22.47;43.59
69221;BME280;56331;51.992;20.910;2023-04-01T15:38:52;98535.92;;;22.47;43.49
69221;BME280;56331;51.992;20.910;2023-04-01T15:41:47;98551.19;;;22.47;43.54
69221;BME280;56331;51.992;20.910;2023-04-01T15:43:56;98545.06;;;22.47;43.58
69221;BME280;56331;51.992;20.910;2023-04-01T16:02:15;98573.80;;;22.49;43.66
69221;BME280;56331;51.992;20.910;2023-04-01T16:05:00;98575.41;;;22.50;43.51
69221;BME280;56331;51.992;20.910;2023-04-01T16:18:39;98609.31;;;22.53;42.64
69221;BME280;56331;51.992;20.910;2023-04-01T16:21:07;98607.51;;;22.51;42.51
69221;BME280;56331;51.992;20.910;2023-04-01T16:26:33;98617.22;;;22.51;42.31
69221;BME280;56331;51.992;20.910;2023-04-01T16:29:30;98620.19;;;22.52;42.26
69221;BME280;56331;51.992;20.910;2023-04-01T16:34:40;98630.50;;;22.52;41.98
69221;BME280;56331;51.992;20.910;2023-04-01T16:37:27;98629.70;;;22.51;41.99
69221;BME280;56331;51.992;20.910;2023-04-01T16:42:51;98651.31;;;22.52;41.86
69221;BME280;56331;51.992;20.910;2023-04-01T16:45:21;98644.55;;;22.49;41.75
69221;BME280;56331;51.992;20.910;2023-04-01T16:50:27;98648.12;;;22.49;41.69
69221;BME280;56331;51.992;20.910;2023-04-01T16:58:23;98671.93;;;22.50;41.36
69221;BME280;56331;51.992;20.910;2023-04-01T17:00:53;98675.49;;;22.51;41.34
69221;BME280;56331;51.992;20.910;2023-04-01T17:03:44;98680.67;;;22.53;41.21
69221;BME280;56331;51.992;20.910;2023-04-01T17:17:24;98699.02;;;22.44;42.99
69221;BME280;56331;51.992;20.910;2023-04-01T17:23:00;98707.70;;;22.39;43.41
69221;BME280;56331;51.992;20.910;2023-04-01T17:45:18;98742.64;;;22.47;42.41
69221;BME280;56331;51.992;20.910;2023-04-01T17:53:35;98765.86;;;22.48;42.25
69221;BME280;56331;51.992;20.910;2023-04-01T17:59:07;98764.27;;;22.47;42.22
69221;BME280;56331;51.992;20.910;2023-04-01T18:02:13;98773.39;;;22.48;42.16
69221;BME280;56331;51.992;20.910;2023-04-01T18:05:03;98777.55;;;22.48;42.07
69221;BME280;56331;51.992;20.910;2023-04-01T18:10:39;98785.09;;;22.47;41.02
69221;BME280;56331;51.992;20.910;2023-04-01T18:15:50;98793.98;;;22.47;40.78
69221;BME280;56331;51.992;20.910;2023-04-01T18:18:35;98794.57;;;22.46;40.58
69221;BME280;56331;51.992;20.910;2023-04-01T18:24:00;98796.98;;;22.48;40.14
69221;BME280;56331;51.992;20.910;2023-04-01T18:26:30;98799.33;;;22.46;40.09
69221;BME280;56331;51.992;20.910;2023-04-01T18:31:51;98809.64;;;22.45;40.05
69221;BME280;56331;51.992;20.910;2023-04-01T18:37:18;98823.70;;;22.46;40.52
69221;BME280;56331;51.992;20.910;2023-04-01T18:40:10;98823.28;;;22.44;40.75
69221;BME280;56331;51.992;20.910;2023-04-01T18:42:46;98828.84;;;22.44;40.73
69221;BME280;56331;51.992;20.910;2023-04-01T18:51:13;98836.19;;;22.46;41.10
69221;BME280;56331;51.992;20.910;2023-04-01T18:53:41;98834.63;;;22.49;41.26
69221;BME280;56331;51.992;20.910;2023-04-01T18:56:13;98842.19;;;22.52;41.33
69221;BME280;56331;51.992;20.910;2023-04-01T18:58:59;98843.41;;;22.55;41.42
69221;BME280;56331;51.992;20.910;2023-04-01T19:04:39;98849.01;;;22.58;41.53
69221;BME280;56331;51.992;20.910;2023-04-01T19:07:36;98861.10;;;22.60;41.55
69221;BME280;56331;51.992;20.910;2023-04-01T19:10:00;98866.28;;;22.61;41.59
69221;BME280;56331;51.992;20.910;2023-04-01T19:32:14;98899.52;;;22.75;41.48
69221;BME280;56331;51.992;20.910;2023-04-01T19:34:59;98896.13;;;22.71;41.61
69221;BME280;56331;51.992;20.910;2023-04-01T19:37:28;98906.20;;;22.70;41.44
69221;BME280;56331;51.992;20.910;2023-04-01T19:42:40;98915.38;;;22.74;40.92
69221;BME280;56331;51.992;20.910;2023-04-01T19:50:59;98918.53;;;22.72;40.36
69221;BME280;56331;51.992;20.910;2023-04-01T19:53:32;98919.91;;;22.72;40.08
69221;BME280;56331;51.992;20.910;2023-04-01T20:01:35;98928.24;;;22.72;39.61
69221;BME280;56331;51.992;20.910;2023-04-01T20:04:07;98936.38;;;22.71;39.45
69221;BME280;56331;51.992;20.910;2023-04-01T20:12:16;98946.03;;;22.68;38.93
69221;BME280;56331;51.992;20.910;2023-04-01T20:14:58;98948.42;;;22.66;38.81
69221;BME280;56331;51.992;20.910;2023-04-01T20:17:33;98952.35;;;22.65;38.74
69221;BME280;56331;51.992;20.910;2023-04-01T20:25:58;98954.14;;;22.63;38.29
69221;BME280;56331;51.992;20.910;2023-04-01T20:31:20;98958.07;;;22.62;38.05
69221;BME280;56331;51.992;20.910;2023-04-01T20:42:34;98974.89;;;22.60;37.84
69221;BME280;56331;51.992;20.910;2023-04-01T20:50:52;98984.58;;;22.56;37.72
69221;BME280;56331;51.992;20.910;2023-04-01T20:53:43;98990.13;;;22.56;37.59
69221;BME280;56331;51.992;20.910;2023-04-01T21:07:28;99004.97;;;22.54;37.40
69221;BME280;56331;51.992;20.910;2023-04-01T21:10:11;99010.31;;;22.53;37.32
69221;BME280;56331;51.992;20.910;2023-04-01T21:26:52;99029.91;;;22.50;37.19
69221;BME280;56331;51.992;20.910;2023-04-01T21:32:25;99038.66;;;22.53;36.89
69221;BME280;56331;51.992;20.910;2023-04-01T21:35:26;99041.20;;;22.52;36.97
69221;BME280;56331;51.992;20.910;2023-04-01T21:38:04;99042.83;;;22.53;36.88
69221;BME280;56331;51.992;20.910;2023-04-01T21:49:57;99049.50;;;22.48;36.86
69221;BME280;56331;51.992;20.910;2023-04-01T22:00:25;99066.16;;;22.48;36.71
69221;BME280;56331;51.992;20.910;2023-04-01T22:11:06;99081.18;;;22.47;37.17
69221;BME280;56331;51.992;20.910;2023-04-01T22:13:39;99073.69;;;22.47;37.18
69221;BME280;56331;51.992;20.910;2023-04-01T22:19:06;99077.45;;;22.49;37.18
69221;BME280;56331;51.992;20.910;2023-04-01T22:24:29;99077.25;;;22.48;37.31
69221;BME280;56331;51.992;20.910;2023-04-01T22:29:43;99091.12;;;22.48;37.36
69221;BME280;56331;51.992;20.910;2023-04-01T22:32:18;99092.88;;;22.46;37.34
69221;BME280;56331;51.992;20.910;2023-04-01T22:37:53;99091.48;;;22.46;37.38
69221;BME280;56331;51.992;20.910;2023-04-01T22:40:31;99099.02;;;22.46;37.45
69221;BME280;56331;51.992;20.910;2023-04-01T22:43:12;99101.80;;;22.46;37.37
69221;BME280;56331;51.992;20.910;2023-04-01T22:46:20;99110.13;;;22.46;37.31
69221;BME280;56331;51.992;20.910;2023-04-01T22:48:52;99106.88;;;22.40;37.34
69221;BME280;56331;51.992;20.910;2023-04-01T22:51:22;99108.85;;;22.40;37.53
69221;BME280;56331;51.992;20.910;2023-04-01T22:54:02;99108.85;;;22.40;37.56
69221;BME280;56331;51.992;20.910;2023-04-01T22:56:33;99114.60;;;22.41;37.60
69221;BME280;56331;51.992;20.910;2023-04-01T22:59:06;99116.78;;;22.41;37.51
69221;BME280;56331;51.992;20.910;2023-04-01T23:01:33;99124.52;;;22.42;37.41
69221;BME280;56331;51.992;20.910;2023-04-01T23:04:03;99122.34;;;22.41;37.43
69221;BME280;56331;51.992;20.910;2023-04-01T23:06:35;99127.69;;;22.40;37.60
69221;BME280;56331;51.992;20.910;2023-04-01T23:17:16;99128.84;;;22.39;37.68
69221;BME280;56331;51.992;20.910;2023-04-01T23:22:39;99135.41;;;22.41;37.61
69221;BME280;56331;51.992;20.910;2023-04-01T23:33:26;99146.72;;;22.42;37.56
69221;BME280;56331;51.992;20.910;2023-04-01T23:36:13;99142.95;;;22.40;37.50
69221;BME280;56331;51.992;20.910;2023-04-01T23:38:42;99149.65;;;22.39;37.62
69221;BME280;56331;51.992;20.910;2023-04-01T23:41:21;99152.02;;;22.37;37.65
69221;BME280;56331;51.992;20.910;2023-04-01T23:43:45;99157.57;;;22.37;37.81
69221;BME280;56331;51.992;20.910;2023-04-01T23:46:15;99159.52;;;22.37;37.81
69221;BME280;56331;51.992;20.910;2023-04-01T23:48:43;99162.53;;;22.38;37.78
69221;BME280;56331;51.992;20.910;2023-04-01T23:53:46;99173.62;;;22.38;37.75
69221;BME280;56331;51.992;20.910;2023-04-01T23:56:17;99176.61;;;22.39;37.75
69221;BME280;56331;51.992;20.910;2023-04-01T23:58:47;99182.75;;;22.38;37.72
